sensor_id;sensor_type;location;lat;lon;timestamp;temperature;humidity
36458;DHT22;22480;50.546;12.292;2023-01-19T00:02:18;-7.10;99.90
36458;DHT22;22480;50.546;12.292;2023-01-19T00:04:44;-7.10;99.90
36458;DHT22;22480;50.546;12.292;2023-01-19T00:07:10;-7.20;99.90
36458;DHT22;22480;50.546;12.292;2023-01-19T00:09:36;-7.20;99.90
36458;DHT22;22480;50.546;12.292;2023-01-19T00:12:03;-7.30;99.90
36458;DHT22;22480;50.546;12.292;2023-01-19T00:14:29;-7.20;99.90
36458;DHT22;22480;50.546;12.292;2023-01-19T00:16:55;-7.20;99.90
36458;DHT22;22480;50.546;12.292;2023-01-19T00:19:20;-7.20;99.90
36458;DHT22;22480;50.546;12.292;2023-01-19T00:21:46;-7.10;99.90
36458;DHT22;22480;50.546;12.292;2023-01-19T00:24:12;-7.00;99.90
36458;DHT22;22480;50.546;12.292;2023-01-19T00:26:39;-6.90;99.90
36458;DHT22;22480;50.546;12.292;2023-01-19T00:29:09;-6.80;99.90
36458;DHT22;22480;50.546;12.292;2023-01-19T00:31:35;-6.50;99.90
36458;DHT22;22480;50.546;12.292;2023-01-19T00:34:02;-6.20;99.90
36458;DHT22;22480;50.546;12.292;2023-01-19T00:36:28;-6.20;99.90
36458;DHT22;22480;50.546;12.292;2023-01-19T00:38:53;-6.20;99.90
36458;DHT22;22480;50.546;12.292;2023-01-19T00:41:19;-6.20;99.90
36458;DHT22;22480;50.546;12.292;2023-01-19T00:44:05;-6.10;99.90
36458;DHT22;22480;50.546;12.292;2023-01-19T00:46:30;-6.10;99.90
36458;DHT22;22480;50.546;12.292;2023-01-19T00:48:56;-6.00;99.90
36458;DHT22;22480;50.546;12.292;2023-01-19T00:51:22;-6.00;99.90
36458;DHT22;22480;50.546;12.292;2023-01-19T00:53:47;-5.90;99.90
36458;DHT22;22480;50.546;12.292;2023-01-19T00:56:13;-5.90;99.90
36458;DHT22;22480;50.546;12.292;2023-01-19T00:58:39;-5.90;99.90
36458;DHT22;22480;50.546;12.292;2023-01-19T01:01:04;-5.80;99.90
36458;DHT22;22480;50.546;12.292;2023-01-19T01:03:31;-5.90;99.90
36458;DHT22;22480;50.546;12.292;2023-01-19T01:05:57;-6.00;99.90
36458;DHT22;22480;50.546;12.292;2023-01-19T01:08:23;-6.10;99.90
36458;DHT22;22480;50.546;12.292;2023-01-19T01:10:49;-6.10;99.90
36458;DHT22;22480;50.546;12.292;2023-01-19T01:13:15;-6.20;99.90
36458;DHT22;22480;50.546;12.292;2023-01-19T01:15:42;-6.20;99.90
36458;DHT22;22480;50.546;12.292;2023-01-19T01:18:08;-6.30;99.90
36458;DHT22;22480;50.546;12.292;2023-01-19T01:20:33;-6.40;99.90
36458;DHT22;22480;50.546;12.292;2023-01-19T01:23:01;-6.40;99.90
36458;DHT22;22480;50.546;12.292;2023-01-19T01:25:28;-6.40;99.90
36458;DHT22;22480;50.546;12.292;2023-01-19T01:27:55;-6.40;99.90
36458;DHT22;22480;50.546;12.292;2023-01-19T01:30:21;-6.40;99.90
36458;DHT22;22480;50.546;12.292;2023-01-19T01:32:47;-6.50;99.90
36458;DHT22;22480;50.546;12.292;2023-01-19T01:35:14;-6.40;99.90
36458;DHT22;22480;50.546;12.292;2023-01-19T01:37:40;-6.40;99.90
36458;DHT22;22480;50.546;12.292;2023-01-19T01:40:10;-6.40;99.90
36458;DHT22;22480;50.546;12.292;2023-01-19T01:42:37;-6.30;99.90
36458;DHT22;22480;50.546;12.292;2023-01-19T01:45:33;-6.40;99.90
36458;DHT22;22480;50.546;12.292;2023-01-19T01:48:11;-6.30;99.90
36458;DHT22;22480;50.546;12.292;2023-01-19T01:50:43;-6.30;99.90
36458;DHT22;22480;50.546;12.292;2023-01-19T01:53:31;-6.20;99.90
36458;DHT22;22480;50.546;12.292;2023-01-19T01:55:58;-6.10;99.90
36458;DHT22;22480;50.546;12.292;2023-01-19T01:58:25;-6.10;99.90
36458;DHT22;22480;50.546;12.292;2023-01-19T02:00:52;-6.00;99.90
36458;DHT22;22480;50.546;12.292;2023-01-19T02:03:38;-6.10;99.90
36458;DHT22;22480;50.546;12.292;2023-01-19T02:06:04;-6.10;99.90
36458;DHT22;22480;50.546;12.292;2023-01-19T02:08:40;-6.10;99.90
36458;DHT22;22480;50.546;12.292;2023-01-19T02:11:26;-6.20;99.90
36458;DHT22;22480;50.546;12.292;2023-01-19T02:14:10;-6.30;99.90
36458;DHT22;22480;50.546;12.292;2023-01-19T02:16:36;-6.40;99.90
36458;DHT22;22480;50.546;12.292;2023-01-19T02:19:04;-6.50;99.90
36458;DHT22;22480;50.546;12.292;2023-01-19T02:21:42;-6.50;99.90
36458;DHT22;22480;50.546;12.292;2023-01-19T02:24:10;-6.60;99.90
36458;DHT22;22480;50.546;12.292;2023-01-19T02:26:38;-6.70;99.90
36458;DHT22;22480;50.546;12.292;2023-01-19T02:29:09;-6.70;99.90
36458;DHT22;22480;50.546;12.292;2023-01-19T02:31:36;-6.80;99.90
36458;DHT22;22480;50.546;12.292;2023-01-19T02:34:05;-6.80;99.90
36458;DHT22;22480;50.546;12.292;2023-01-19T02:36:51;-6.80;99.90
36458;DHT22;22480;50.546;12.292;2023-01-19T02:39:20;-6.90;99.90
36458;DHT22;22480;50.546;12.292;2023-01-19T02:41:51;-6.90;99.90
36458;DHT22;22480;50.546;12.292;2023-01-19T02:44:19;-6.90;99.90
36458;DHT22;22480;50.546;12.292;2023-01-19T02:46:45;-6.90;99.90
36458;DHT22;22480;50.546;12.292;2023-01-19T02:49:11;-7.00;99.90
36458;DHT22;22480;50.546;12.292;2023-01-19T02:51:38;-7.00;99.90
36458;DHT22;22480;50.546;12.292;2023-01-19T02:59:15;-7.00;99.90
36458;DHT22;22480;50.546;12.292;2023-01-19T03:07:22;-7.10;99.90
36458;DHT22;22480;50.546;12.292;2023-01-19T03:15:49;-7.40;99.90
36458;DHT22;22480;50.546;12.292;2023-01-19T03:18:18;-7.30;99.90
36458;DHT22;22480;50.546;12.292;2023-01-19T03:20:45;-7.20;99.90
36458;DHT22;22480;50.546;12.292;2023-01-19T03:23:14;-7.10;99.90
36458;DHT22;22480;50.546;12.292;2023-01-19T03:25:42;-7.10;99.90
36458;DHT22;22480;50.546;12.292;2023-01-19T03:28:12;-7.10;99.90
36458;DHT22;22480;50.546;12.292;2023-01-19T03:30:42;-7.00;99.90
36458;DHT22;22480;50.546;12.292;2023-01-19T03:33:25;-7.10;99.90
36458;DHT22;22480;50.546;12.292;2023-01-19T03:35:55;-7.00;99.90
36458;DHT22;22480;50.546;12.292;2023-01-19T03:38:26;-6.90;99.90
36458;DHT22;22480;50.546;12.292;2023-01-19T03:40:57;-6.90;99.90
36458;DHT22;22480;50.546;12.292;2023-01-19T03:43:23;-6.80;99.90
36458;DHT22;22480;50.546;12.292;2023-01-19T03:45:51;-6.70;99.90
36458;DHT22;22480;50.546;12.292;2023-01-19T03:48:19;-6.60;99.90
36458;DHT22;22480;50.546;12.292;2023-01-19T03:50:45;-6.60;99.90
36458;DHT22;22480;50.546;12.292;2023-01-19T03:53:13;-6.50;99.90
36458;DHT22;22480;50.546;12.292;2023-01-19T03:55:41;-6.50;99.90
36458;DHT22;22480;50.546;12.292;2023-01-19T03:58:07;-6.60;99.90
36458;DHT22;22480;50.546;12.292;2023-01-19T04:00:33;-6.80;99.90
36458;DHT22;22480;50.546;12.292;2023-01-19T04:03:01;-6.90;99.90
36458;DHT22;22480;50.546;12.292;2023-01-19T04:05:27;-6.90;99.90
36458;DHT22;22480;50.546;12.292;2023-01-19T04:07:54;-6.90;99.90
36458;DHT22;22480;50.546;12.292;2023-01-19T04:10:20;-6.90;99.90
36458;DHT22;22480;50.546;12.292;2023-01-19T04:12:46;-6.90;99.90
36458;DHT22;22480;50.546;12.292;2023-01-19T04:15:12;-6.60;99.90
36458;DHT22;22480;50.546;12.292;2023-01-19T04:17:39;-6.50;99.90
36458;DHT22;22480;50.546;12.292;2023-01-19T04:20:05;-6.30;99.90
36458;DHT22;22480;50.546;12.292;2023-01-19T04:22:31;-6.20;99.90
36458;DHT22;22480;50.546;12.292;2023-01-19T04:24:57;-6.00;99.90
36458;DHT22;22480;50.546;12.292;2023-01-19T04:27:23;-6.00;99.90
36458;DHT22;22480;50.546;12.292;2023-01-19T04:29:50;-6.00;99.90
36458;DHT22;22480;50.546;12.292;2023-01-19T04:32:16;-5.90;99.90
36458;DHT22;22480;50.546;12.292;2023-01-19T04:34:42;-5.80;99.90
36458;DHT22;22480;50.546;12.292;2023-01-19T04:37:08;-5.70;99.90
36458;DHT22;22480;50.546;12.292;2023-01-19T04:39:34;-5.70;99.90
36458;DHT22;22480;50.546;12.292;2023-01-19T04:42:00;-5.80;99.90
36458;DHT22;22480;50.546;12.292;2023-01-19T04:44:26;-5.90;99.90
36458;DHT22;22480;50.546;12.292;2023-01-19T04:46:52;-6.00;99.90
36458;DHT22;22480;50.546;12.292;2023-01-19T04:49:19;-6.30;99.90
36458;DHT22;22480;50.546;12.292;2023-01-19T04:51:45;-6.40;99.90
36458;DHT22;22480;50.546;12.292;2023-01-19T04:54:11;-6.50;99.90
36458;DHT22;22480;50.546;12.292;2023-01-19T04:56:36;-6.50;99.90
36458;DHT22;22480;50.546;12.292;2023-01-19T04:59:03;-6.60;99.90
36458;DHT22;22480;50.546;12.292;2023-01-19T05:01:28;-6.50;99.90
36458;DHT22;22480;50.546;12.292;2023-01-19T05:03:57;-6.40;99.90
36458;DHT22;22480;50.546;12.292;2023-01-19T05:06:23;-6.30;99.90
36458;DHT22;22480;50.546;12.292;2023-01-19T05:08:48;-6.30;99.90
36458;DHT22;22480;50.546;12.292;2023-01-19T05:11:14;-6.30;99.90
36458;DHT22;22480;50.546;12.292;2023-01-19T05:13:39;-6.30;99.90
36458;DHT22;22480;50.546;12.292;2023-01-19T05:16:05;-6.40;99.90
36458;DHT22;22480;50.546;12.292;2023-01-19T05:18:31;-6.50;99.90
36458;DHT22;22480;50.546;12.292;2023-01-19T05:21:03;-6.50;99.90
36458;DHT22;22480;50.546;12.292;2023-01-19T05:23:29;-6.50;99.90
36458;DHT22;22480;50.546;12.292;2023-01-19T05:26:00;-6.50;99.90
36458;DHT22;22480;50.546;12.292;2023-01-19T05:28:31;-6.50;99.90
36458;DHT22;22480;50.546;12.292;2023-01-19T05:30:57;-6.50;99.90
36458;DHT22;22480;50.546;12.292;2023-01-19T05:33:23;-6.60;99.90
36458;DHT22;22480;50.546;12.292;2023-01-19T05:35:50;-6.60;99.90
36458;DHT22;22480;50.546;12.292;2023-01-19T05:38:16;-6.70;99.90
36458;DHT22;22480;50.546;12.292;2023-01-19T05:40:42;-6.80;99.90
36458;DHT22;22480;50.546;12.292;2023-01-19T05:43:09;-6.90;99.90
36458;DHT22;22480;50.546;12.292;2023-01-19T05:45:34;-6.90;99.90
36458;DHT22;22480;50.546;12.292;2023-01-19T05:48:00;-6.90;99.90
36458;DHT22;22480;50.546;12.292;2023-01-19T05:50:26;-6.70;99.90
36458;DHT22;22480;50.546;12.292;2023-01-19T05:52:52;-6.50;99.90
36458;DHT22;22480;50.546;12.292;2023-01-19T05:55:19;-6.30;99.90
36458;DHT22;22480;50.546;12.292;2023-01-19T05:57:44;-6.20;99.90
36458;DHT22;22480;50.546;12.292;2023-01-19T06:00:11;-6.10;99.90
36458;DHT22;22480;50.546;12.292;2023-01-19T06:02:38;-5.90;99.90
36458;DHT22;22480;50.546;12.292;2023-01-19T06:05:04;-6.00;99.90
36458;DHT22;22480;50.546;12.292;2023-01-19T06:07:30;-6.20;99.90
36458;DHT22;22480;50.546;12.292;2023-01-19T06:09:57;-6.10;99.90
36458;DHT22;22480;50.546;12.292;2023-01-19T06:12:23;-6.00;99.90
36458;DHT22;22480;50.546;12.292;2023-01-19T06:14:48;-6.00;99.90
36458;DHT22;22480;50.546;12.292;2023-01-19T06:17:15;-5.90;99.90
36458;DHT22;22480;50.546;12.292;2023-01-19T06:19:41;-6.00;99.90
36458;DHT22;22480;50.546;12.292;2023-01-19T06:22:07;-5.90;99.90
36458;DHT22;22480;50.546;12.292;2023-01-19T06:24:33;-5.70;99.90
36458;DHT22;22480;50.546;12.292;2023-01-19T06:26:58;-5.50;99.90
36458;DHT22;22480;50.546;12.292;2023-01-19T06:29:25;-5.40;99.90
36458;DHT22;22480;50.546;12.292;2023-01-19T06:31:51;-5.20;99.90
36458;DHT22;22480;50.546;12.292;2023-01-19T06:34:17;-5.00;99.90
36458;DHT22;22480;50.546;12.292;2023-01-19T06:36:44;-4.80;99.90
36458;DHT22;22480;50.546;12.292;2023-01-19T06:39:11;-4.60;99.90
36458;DHT22;22480;50.546;12.292;2023-01-19T06:41:37;-4.50;99.90
36458;DHT22;22480;50.546;12.292;2023-01-19T06:44:03;-4.30;99.90
36458;DHT22;22480;50.546;12.292;2023-01-19T06:46:29;-4.30;99.90
36458;DHT22;22480;50.546;12.292;2023-01-19T06:48:54;-4.20;99.90
36458;DHT22;22480;50.546;12.292;2023-01-19T06:51:21;-4.10;99.90
36458;DHT22;22480;50.546;12.292;2023-01-19T06:53:47;-4.10;99.90
36458;DHT22;22480;50.546;12.292;2023-01-19T06:56:12;-4.00;99.90
36458;DHT22;22480;50.546;12.292;2023-01-19T06:58:39;-4.00;99.90
36458;DHT22;22480;50.546;12.292;2023-01-19T07:01:07;-4.00;99.90
36458;DHT22;22480;50.546;12.292;2023-01-19T07:03:33;-3.90;99.90
36458;DHT22;22480;50.546;12.292;2023-01-19T07:06:00;-3.80;99.90
36458;DHT22;22480;50.546;12.292;2023-01-19T07:08:34;-3.70;99.90
36458;DHT22;22480;50.546;12.292;2023-01-19T07:11:02;-3.60;99.90
36458;DHT22;22480;50.546;12.292;2023-01-19T07:13:29;-3.60;99.90
36458;DHT22;22480;50.546;12.292;2023-01-19T07:15:55;-3.50;99.90
36458;DHT22;22480;50.546;12.292;2023-01-19T07:18:21;-3.50;99.90
36458;DHT22;22480;50.546;12.292;2023-01-19T07:20:46;-3.40;99.90
36458;DHT22;22480;50.546;12.292;2023-01-19T07:23:14;-3.40;99.90
36458;DHT22;22480;50.546;12.292;2023-01-19T07:25:43;-3.30;99.90
36458;DHT22;22480;50.546;12.292;2023-01-19T07:28:09;-3.30;99.90
36458;DHT22;22480;50.546;12.292;2023-01-19T07:30:35;-3.20;99.90
36458;DHT22;22480;50.546;12.292;2023-01-19T07:33:01;-3.20;99.90
36458;DHT22;22480;50.546;12.292;2023-01-19T07:35:27;-3.20;99.90
36458;DHT22;22480;50.546;12.292;2023-01-19T07:37:54;-3.20;99.90
36458;DHT22;22480;50.546;12.292;2023-01-19T07:40:19;-3.10;99.90
36458;DHT22;22480;50.546;12.292;2023-01-19T07:42:47;-3.00;99.90
36458;DHT22;22480;50.546;12.292;2023-01-19T07:45:14;-3.00;99.90
36458;DHT22;22480;50.546;12.292;2023-01-19T07:47:42;-3.00;99.90
36458;DHT22;22480;50.546;12.292;2023-01-19T07:50:09;-2.90;99.90
36458;DHT22;22480;50.546;12.292;2023-01-19T07:52:35;-2.90;99.90
36458;DHT22;22480;50.546;12.292;2023-01-19T07:55:01;-2.90;99.90
36458;DHT22;22480;50.546;12.292;2023-01-19T07:57:26;-2.80;99.90
36458;DHT22;22480;50.546;12.292;2023-01-19T07:59:53;-2.80;99.90
36458;DHT22;22480;50.546;12.292;2023-01-19T08:02:18;-2.80;99.90
36458;DHT22;22480;50.546;12.292;2023-01-19T08:04:47;-2.80;99.90
36458;DHT22;22480;50.546;12.292;2023-01-19T08:07:12;-2.80;99.90
36458;DHT22;22480;50.546;12.292;2023-01-19T08:09:38;-2.70;99.90
36458;DHT22;22480;50.546;12.292;2023-01-19T08:12:04;-2.70;99.90
36458;DHT22;22480;50.546;12.292;2023-01-19T08:14:30;-2.70;99.90
36458;DHT22;22480;50.546;12.292;2023-01-19T08:17:00;-2.70;99.90
36458;DHT22;22480;50.546;12.292;2023-01-19T08:19:26;-2.70;99.90
36458;DHT22;22480;50.546;12.292;2023-01-19T08:21:51;-2.70;99.90
36458;DHT22;22480;50.546;12.292;2023-01-19T08:24:19;-2.60;99.90
36458;DHT22;22480;50.546;12.292;2023-01-19T08:26:46;-2.60;99.90
36458;DHT22;22480;50.546;12.292;2023-01-19T08:29:12;-2.60;99.90
36458;DHT22;22480;50.546;12.292;2023-01-19T08:31:38;-2.60;99.90
36458;DHT22;22480;50.546;12.292;2023-01-19T08:34:04;-2.60;99.90
36458;DHT22;22480;50.546;12.292;2023-01-19T08:36:30;-2.60;99.90
36458;DHT22;22480;50.546;12.292;2023-01-19T08:38:56;-2.60;99.90
36458;DHT22;22480;50.546;12.292;2023-01-19T08:41:21;-2.50;99.90
36458;DHT22;22480;50.546;12.292;2023-01-19T08:43:48;-2.50;99.90
36458;DHT22;22480;50.546;12.292;2023-01-19T08:46:14;-2.50;99.90
36458;DHT22;22480;50.546;12.292;2023-01-19T08:48:42;-2.50;99.90
36458;DHT22;22480;50.546;12.292;2023-01-19T08:51:11;-2.40;99.90
36458;DHT22;22480;50.546;12.292;2023-01-19T08:53:37;-2.40;99.90
36458;DHT22;22480;50.546;12.292;2023-01-19T08:56:03;-2.30;99.90
36458;DHT22;22480;50.546;12.292;2023-01-19T08:58:29;-2.30;99.90
36458;DHT22;22480;50.546;12.292;2023-01-19T09:00:54;-2.30;99.90
36458;DHT22;22480;50.546;12.292;2023-01-19T09:03:20;-2.30;99.90
36458;DHT22;22480;50.546;12.292;2023-01-19T09:05:47;-2.20;99.90
36458;DHT22;22480;50.546;12.292;2023-01-19T09:08:14;-2.10;99.90
36458;DHT22;22480;50.546;12.292;2023-01-19T09:10:45;-2.00;99.90
36458;DHT22;22480;50.546;12.292;2023-01-19T09:13:11;-1.90;99.90
36458;DHT22;22480;50.546;12.292;2023-01-19T09:15:38;-1.80;99.90
36458;DHT22;22480;50.546;12.292;2023-01-19T09:18:06;-1.80;99.90
36458;DHT22;22480;50.546;12.292;2023-01-19T09:20:34;-1.70;99.90
36458;DHT22;22480;50.546;12.292;2023-01-19T09:23:03;-1.70;99.90
36458;DHT22;22480;50.546;12.292;2023-01-19T09:25:29;-1.50;99.90
36458;DHT22;22480;50.546;12.292;2023-01-19T09:27:54;-1.60;99.90
36458;DHT22;22480;50.546;12.292;2023-01-19T09:30:20;-1.50;99.90
36458;DHT22;22480;50.546;12.292;2023-01-19T09:32:46;-1.50;99.90
36458;DHT22;22480;50.546;12.292;2023-01-19T09:35:12;-1.50;99.90
36458;DHT22;22480;50.546;12.292;2023-01-19T09:37:37;-1.50;99.90
36458;DHT22;22480;50.546;12.292;2023-01-19T09:40:04;-1.50;99.90
36458;DHT22;22480;50.546;12.292;2023-01-19T09:42:42;-1.30;99.90
36458;DHT22;22480;50.546;12.292;2023-01-19T09:45:35;-1.30;99.90
36458;DHT22;22480;50.546;12.292;2023-01-19T09:48:09;-1.40;99.90
36458;DHT22;22480;50.546;12.292;2023-01-19T09:50:41;-1.40;99.90
36458;DHT22;22480;50.546;12.292;2023-01-19T09:53:26;-1.30;99.90
36458;DHT22;22480;50.546;12.292;2023-01-19T09:55:55;-1.20;99.90
36458;DHT22;22480;50.546;12.292;2023-01-19T09:58:21;-1.20;99.90
36458;DHT22;22480;50.546;12.292;2023-01-19T10:00:57;-1.20;99.90
36458;DHT22;22480;50.546;12.292;2023-01-19T10:03:24;-1.20;99.90
36458;DHT22;22480;50.546;12.292;2023-01-19T10:06:08;-1.10;99.90
36458;DHT22;22480;50.546;12.292;2023-01-19T10:08:49;-1.20;99.90
36458;DHT22;22480;50.546;12.292;2023-01-19T10:11:39;-1.30;99.90
36458;DHT22;22480;50.546;12.292;2023-01-19T10:14:08;-1.30;99.90
36458;DHT22;22480;50.546;12.292;2023-01-19T10:19:37;-1.40;99.90
36458;DHT22;22480;50.546;12.292;2023-01-19T10:22:24;-1.30;99.90
36458;DHT22;22480;50.546;12.292;2023-01-19T10:24:56;-1.30;99.90
36458;DHT22;22480;50.546;12.292;2023-01-19T10:27:28;-1.30;99.90
36458;DHT22;22480;50.546;12.292;2023-01-19T10:29:56;-1.30;99.90
36458;DHT22;22480;50.546;12.292;2023-01-19T10:32:27;-1.20;99.90
36458;DHT22;22480;50.546;12.292;2023-01-19T10:34:55;-1.10;99.90
36458;DHT22;22480;50.546;12.292;2023-01-19T10:37:53;-1.20;99.90
36458;DHT22;22480;50.546;12.292;2023-01-19T10:42:58;-1.10;99.90
36458;DHT22;22480;50.546;12.292;2023-01-19T10:45:26;-1.00;99.90
36458;DHT22;22480;50.546;12.292;2023-01-19T10:47:56;-1.00;99.90
36458;DHT22;22480;50.546;12.292;2023-01-19T10:52:50;-0.90;99.90
36458;DHT22;22480;50.546;12.292;2023-01-19T10:57:50;-1.00;99.90
36458;DHT22;22480;50.546;12.292;2023-01-19T11:00:32;-0.90;99.90
36458;DHT22;22480;50.546;12.292;2023-01-19T11:02:59;-0.80;99.90
36458;DHT22;22480;50.546;12.292;2023-01-19T11:05:27;-0.80;99.90
36458;DHT22;22480;50.546;12.292;2023-01-19T11:07:53;-0.70;99.90
36458;DHT22;22480;50.546;12.292;2023-01-19T11:10:25;-0.70;99.90
36458;DHT22;22480;50.546;12.292;2023-01-19T11:15:26;-0.60;99.90
36458;DHT22;22480;50.546;12.292;2023-01-19T11:17:53;-0.50;99.90
36458;DHT22;22480;50.546;12.292;2023-01-19T11:20:25;-0.50;99.90
36458;DHT22;22480;50.546;12.292;2023-01-19T11:23:26;-0.60;99.90
36458;DHT22;22480;50.546;12.292;2023-01-19T11:25:55;-0.60;99.90
36458;DHT22;22480;50.546;12.292;2023-01-19T11:28:35;-0.70;99.90
36458;DHT22;22480;50.546;12.292;2023-01-19T11:33:49;-0.80;99.90
36458;DHT22;22480;50.546;12.292;2023-01-19T11:36:18;-1.00;99.90
36458;DHT22;22480;50.546;12.292;2023-01-19T11:38:52;-1.10;99.90
36458;DHT22;22480;50.546;12.292;2023-01-19T11:41:29;-1.10;99.90
36458;DHT22;22480;50.546;12.292;2023-01-19T11:43:59;-1.20;99.90
36458;DHT22;22480;50.546;12.292;2023-01-19T11:46:32;-1.20;99.90
36458;DHT22;22480;50.546;12.292;2023-01-19T11:49:03;-1.10;99.90
36458;DHT22;22480;50.546;12.292;2023-01-19T11:51:42;-1.20;99.90
36458;DHT22;22480;50.546;12.292;2023-01-19T11:54:28;-1.20;99.90
36458;DHT22;22480;50.546;12.292;2023-01-19T11:56:57;-1.20;99.90
36458;DHT22;22480;50.546;12.292;2023-01-19T11:59:23;-1.20;99.90
36458;DHT22;22480;50.546;12.292;2023-01-19T12:01:54;-1.20;99.90
36458;DHT22;22480;50.546;12.292;2023-01-19T12:04:28;-1.10;99.90
36458;DHT22;22480;50.546;12.292;2023-01-19T12:06:56;-1.10;99.90
36458;DHT22;22480;50.546;12.292;2023-01-19T12:09:33;-1.20;99.90
36458;DHT22;22480;50.546;12.292;2023-01-19T12:12:06;-1.20;99.90
36458;DHT22;22480;50.546;12.292;2023-01-19T12:14:53;-1.20;99.90
36458;DHT22;22480;50.546;12.292;2023-01-19T12:17:26;-1.20;99.90
36458;DHT22;22480;50.546;12.292;2023-01-19T12:19:59;-1.20;99.90
36458;DHT22;22480;50.546;12.292;2023-01-19T12:22:28;-1.10;99.90
36458;DHT22;22480;50.546;12.292;2023-01-19T12:27:38;-1.10;99.90
36458;DHT22;22480;50.546;12.292;2023-01-19T12:30:25;-1.10;99.90
36458;DHT22;22480;50.546;12.292;2023-01-19T12:32:51;-1.10;99.90
36458;DHT22;22480;50.546;12.292;2023-01-19T12:35:54;-1.10;99.90
36458;DHT22;22480;50.546;12.292;2023-01-19T12:38:49;-1.10;99.90
36458;DHT22;22480;50.546;12.292;2023-01-19T12:41:39;-1.00;99.90
36458;DHT22;22480;50.546;12.292;2023-01-19T12:46:48;-1.00;99.90
36458;DHT22;22480;50.546;12.292;2023-01-19T12:49:27;-1.00;99.90
36458;DHT22;22480;50.546;12.292;2023-01-19T12:57:39;-1.00;99.90
36458;DHT22;22480;50.546;12.292;2023-01-19T13:03:02;-0.80;99.90
36458;DHT22;22480;50.546;12.292;2023-01-19T13:18:52;-0.80;99.90
36458;DHT22;22480;50.546;12.292;2023-01-19T13:21:46;-0.90;99.90
36458;DHT22;22480;50.546;12.292;2023-01-19T13:26:51;-0.90;99.90
36458;DHT22;22480;50.546;12.292;2023-01-19T13:31:45;-0.90;99.90
36458;DHT22;22480;50.546;12.292;2023-01-19T13:34:22;-1.00;99.90
36458;DHT22;22480;50.546;12.292;2023-01-19T13:36:51;-1.00;99.90
36458;DHT22;22480;50.546;12.292;2023-01-19T13:39:26;-0.90;99.90
36458;DHT22;22480;50.546;12.292;2023-01-19T13:41:54;-0.90;99.90
36458;DHT22;22480;50.546;12.292;2023-01-19T13:44:32;-1.00;99.90
36458;DHT22;22480;50.546;12.292;2023-01-19T13:47:02;-1.00;99.90
36458;DHT22;22480;50.546;12.292;2023-01-19T13:49:34;-1.00;99.90
36458;DHT22;22480;50.546;12.292;2023-01-19T13:54:59;-1.00;99.90
36458;DHT22;22480;50.546;12.292;2023-01-19T13:57:42;-1.00;99.90
36458;DHT22;22480;50.546;12.292;2023-01-19T14:03:00;-1.00;99.90
36458;DHT22;22480;50.546;12.292;2023-01-19T14:05:37;-1.00;99.90
36458;DHT22;22480;50.546;12.292;2023-01-19T14:10:31;-1.00;99.90
36458;DHT22;22480;50.546;12.292;2023-01-19T14:13:10;-1.00;99.90
36458;DHT22;22480;50.546;12.292;2023-01-19T14:15:37;-0.90;99.90
36458;DHT22;22480;50.546;12.292;2023-01-19T14:21:12;-1.00;99.90
36458;DHT22;22480;50.546;12.292;2023-01-19T14:24:04;-1.00;99.90
36458;DHT22;22480;50.546;12.292;2023-01-19T14:29:21;-1.00;99.90
36458;DHT22;22480;50.546;12.292;2023-01-19T14:37:26;-1.10;99.90
36458;DHT22;22480;50.546;12.292;2023-01-19T14:42:44;-1.10;99.90
36458;DHT22;22480;50.546;12.292;2023-01-19T14:45:24;-1.10;99.90
36458;DHT22;22480;50.546;12.292;2023-01-19T14:48:00;-1.10;99.90
36458;DHT22;22480;50.546;12.292;2023-01-19T14:50:35;-1.20;99.90
36458;DHT22;22480;50.546;12.292;2023-01-19T14:53:06;-1.20;99.90
36458;DHT22;22480;50.546;12.292;2023-01-19T14:56:02;-1.20;99.90
36458;DHT22;22480;50.546;12.292;2023-01-19T14:58:31;-1.20;99.90
36458;DHT22;22480;50.546;12.292;2023-01-19T15:00:57;-1.20;99.90
36458;DHT22;22480;50.546;12.292;2023-01-19T15:03:25;-1.30;99.90
36458;DHT22;22480;50.546;12.292;2023-01-19T15:05:52;-1.30;99.90
36458;DHT22;22480;50.546;12.292;2023-01-19T15:08:31;-1.30;99.90
36458;DHT22;22480;50.546;12.292;2023-01-19T15:13:51;-1.40;99.90
36458;DHT22;22480;50.546;12.292;2023-01-19T15:16:17;-1.40;99.90
36458;DHT22;22480;50.546;12.292;2023-01-19T15:18:43;-1.40;99.90
36458;DHT22;22480;50.546;12.292;2023-01-19T15:21:13;-1.40;99.90
36458;DHT22;22480;50.546;12.292;2023-01-19T15:23:40;-1.40;99.90
36458;DHT22;22480;50.546;12.292;2023-01-19T15:26:06;-1.40;99.90
36458;DHT22;22480;50.546;12.292;2023-01-19T15:28:32;-1.40;99.90
36458;DHT22;22480;50.546;12.292;2023-01-19T15:30:58;-1.40;99.90
36458;DHT22;22480;50.546;12.292;2023-01-19T15:33:27;-1.40;99.90
36458;DHT22;22480;50.546;12.292;2023-01-19T15:35:54;-1.40;99.90
36458;DHT22;22480;50.546;12.292;2023-01-19T15:38:20;-1.40;99.90
36458;DHT22;22480;50.546;12.292;2023-01-19T15:40:47;-1.40;99.90
36458;DHT22;22480;50.546;12.292;2023-01-19T15:43:13;-1.40;99.90
36458;DHT22;22480;50.546;12.292;2023-01-19T15:45:45;-1.40;99.90
36458;DHT22;22480;50.546;12.292;2023-01-19T15:48:13;-1.50;99.90
36458;DHT22;22480;50.546;12.292;2023-01-19T15:50:41;-1.50;99.90
36458;DHT22;22480;50.546;12.292;2023-01-19T15:53:16;-1.50;99.90
36458;DHT22;22480;50.546;12.292;2023-01-19T15:55:42;-1.50;99.90
36458;DHT22;22480;50.546;12.292;2023-01-19T15:58:09;-1.50;99.90
36458;DHT22;22480;50.546;12.292;2023-01-19T16:00:35;-1.50;99.90
36458;DHT22;22480;50.546;12.292;2023-01-19T16:03:01;-1.40;99.90
36458;DHT22;22480;50.546;12.292;2023-01-19T16:05:28;-1.50;99.90
36458;DHT22;22480;50.546;12.292;2023-01-19T16:07:53;-1.50;99.90
36458;DHT22;22480;50.546;12.292;2023-01-19T16:10:19;-1.50;99.90
36458;DHT22;22480;50.546;12.292;2023-01-19T16:12:46;-1.50;99.90
36458;DHT22;22480;50.546;12.292;2023-01-19T16:15:15;-1.50;99.90
36458;DHT22;22480;50.546;12.292;2023-01-19T16:17:41;-1.50;99.90
36458;DHT22;22480;50.546;12.292;2023-01-19T16:20:08;-1.50;99.90
36458;DHT22;22480;50.546;12.292;2023-01-19T16:22:35;-1.50;99.90
36458;DHT22;22480;50.546;12.292;2023-01-19T16:25:01;-1.50;99.90
36458;DHT22;22480;50.546;12.292;2023-01-19T16:27:28;-1.50;99.90
36458;DHT22;22480;50.546;12.292;2023-01-19T16:29:53;-1.50;99.90
36458;DHT22;22480;50.546;12.292;2023-01-19T16:32:19;-1.40;99.90
36458;DHT22;22480;50.546;12.292;2023-01-19T16:34:45;-1.50;99.90
36458;DHT22;22480;50.546;12.292;2023-01-19T16:37:11;-1.50;99.90
36458;DHT22;22480;50.546;12.292;2023-01-19T16:39:36;-1.50;99.90
36458;DHT22;22480;50.546;12.292;2023-01-19T16:42:02;-1.40;99.90
36458;DHT22;22480;50.546;12.292;2023-01-19T16:44:28;-1.40;99.90
36458;DHT22;22480;50.546;12.292;2023-01-19T16:46:54;-1.50;99.90
36458;DHT22;22480;50.546;12.292;2023-01-19T16:49:22;-1.40;99.90
36458;DHT22;22480;50.546;12.292;2023-01-19T16:51:49;-1.40;99.90
36458;DHT22;22480;50.546;12.292;2023-01-19T16:54:22;-1.40;99.90
36458;DHT22;22480;50.546;12.292;2023-01-19T16:56:51;-1.40;99.90
36458;DHT22;22480;50.546;12.292;2023-01-19T16:59:18;-1.40;99.90